createdAt,value
2018-11-26T00:01:45.454Z,6.64
2018-11-26T00:04:13.874Z,6.65
2018-11-26T00:06:42.370Z,6.64
2018-11-26T00:09:14.969Z,6.64
2018-11-26T00:11:44.902Z,6.62
2018-11-26T00:14:13.451Z,6.62
2018-11-26T00:16:45.943Z,6.62
2018-11-26T00:19:14.409Z,6.61
2018-11-26T00:22:00.606Z,6.59
2018-11-26T00:24:35.861Z,6.57
2018-11-26T00:27:04.546Z,6.53
2018-11-26T00:29:38.113Z,6.55
2018-11-26T00:32:13.595Z,6.55
2018-11-26T00:34:42.137Z,6.57
2018-11-26T00:37:15.661Z,6.58
2018-11-26T00:42:19.213Z,6.59
2018-11-26T00:44:47.644Z,6.59
2018-11-26T00:47:16.069Z,6.54
2018-11-26T00:49:44.693Z,6.54
2018-11-26T00:52:13.220Z,6.55
2018-11-26T00:54:41.698Z,6.57
2018-11-26T00:57:10.185Z,6.57
2018-11-26T00:59:38.733Z,6.59
2018-11-26T01:02:11.520Z,6.57
2018-11-26T01:04:40.917Z,6.60
2018-11-26T01:07:09.520Z,6.61
2018-11-26T01:09:38.004Z,6.63
2018-11-26T01:12:10.489Z,6.62
2018-11-26T01:14:39.188Z,6.58
2018-11-26T01:17:07.629Z,6.59
2018-11-26T01:19:36.129Z,6.60
2018-11-26T01:22:04.564Z,6.63
2018-11-26T01:24:37.185Z,6.66
2018-11-26T01:27:05.947Z,6.68
2018-11-26T01:29:34.388Z,6.69
2018-11-26T01:32:07.924Z,6.71
2018-11-26T01:34:40.026Z,6.74
2018-11-26T01:37:08.584Z,6.73
2018-11-26T01:39:37.062Z,6.72
2018-11-26T01:42:05.464Z,6.70
2018-11-26T01:44:33.909Z,6.71
2018-11-26T01:47:30.133Z,6.72
2018-11-26T01:49:58.533Z,6.71
2018-11-26T01:52:30.984Z,6.70
2018-11-26T01:54:59.454Z,6.70
2018-11-26T02:00:36.553Z,6.76
2018-11-26T02:03:04.981Z,6.79
2018-11-26T02:05:33.537Z,6.79
2018-11-26T02:08:01.952Z,6.78
2018-11-26T02:10:30.358Z,6.76
2018-11-26T02:12:58.801Z,6.80
2018-11-26T02:15:36.529Z,6.80
2018-11-26T02:18:05.019Z,6.78
2018-11-26T02:20:33.706Z,6.77
2018-11-26T02:23:02.126Z,6.75
2018-11-26T02:25:30.682Z,6.77
2018-11-26T02:27:59.156Z,6.80
2018-11-26T02:30:27.853Z,6.79
2018-11-26T02:32:56.274Z,6.78
2018-11-26T02:35:26.498Z,6.74
2018-11-26T02:37:56.946Z,6.72
2018-11-26T02:40:33.045Z,6.72
2018-11-26T02:43:06.468Z,6.72
2018-11-26T02:45:34.892Z,6.69
2018-11-26T02:48:03.314Z,6.69
2018-11-26T02:50:33.613Z,6.69
2018-11-26T02:53:02.031Z,6.67
2018-11-26T02:55:30.444Z,6.65
2018-11-26T02:57:58.896Z,6.66
2018-11-26T03:00:27.568Z,6.68
2018-11-26T03:02:56.039Z,6.71
2018-11-26T03:05:27.107Z,6.69
2018-11-26T03:07:55.676Z,6.70
2018-11-26T03:10:25.038Z,6.70
2018-11-26T03:13:01.973Z,6.70
2018-11-26T03:15:30.678Z,6.70
2018-11-26T03:17:59.397Z,6.70
2018-11-26T03:20:32.770Z,6.69
2018-11-26T03:23:01.169Z,6.70
2018-11-26T03:25:29.877Z,6.70
2018-11-26T03:28:03.402Z,6.72
2018-11-26T03:33:08.871Z,6.73
2018-11-26T03:35:37.328Z,6.72
2018-11-26T03:38:20.889Z,6.72
2018-11-26T03:40:54.539Z,6.72
2018-11-26T03:43:22.958Z,6.71
2018-11-26T03:45:56.513Z,6.68
2018-11-26T03:48:28.749Z,6.69
2018-11-26T03:50:57.368Z,6.70
2018-11-26T03:53:26.374Z,6.69
2018-11-26T03:55:55.113Z,6.70
2018-11-26T03:58:23.515Z,6.68
2018-11-26T04:00:53.964Z,6.68
2018-11-26T04:03:22.435Z,6.70
2018-11-26T04:05:50.897Z,6.69
2018-11-26T04:08:19.320Z,6.67
2018-11-26T04:10:47.888Z,6.66
2018-11-26T04:16:32.904Z,6.67
2018-11-26T04:19:06.387Z,6.64
2018-11-26T04:21:34.913Z,6.64
2018-11-26T04:24:03.548Z,6.64
2018-11-26T04:26:32.198Z,6.64
2018-11-26T04:29:02.763Z,6.64
2018-11-26T04:31:31.299Z,6.62
2018-11-26T04:34:02.778Z,6.59
2018-11-26T04:36:33.330Z,6.60
2018-11-26T04:39:01.765Z,6.62
2018-11-26T04:41:35.266Z,6.60
2018-11-26T05:04:13.885Z,6.60
2018-11-26T05:06:42.249Z,6.59
2018-11-26T05:09:10.713Z,6.58
2018-11-26T05:11:39.109Z,6.59
2018-11-26T05:17:05.516Z,6.54
2018-11-26T05:19:54.383Z,6.50
2018-11-26T05:22:22.945Z,6.49
2018-11-26T05:24:52.362Z,6.49
2018-11-26T05:27:20.782Z,6.47
2018-11-26T05:29:49.250Z,6.49
2018-11-26T05:32:17.689Z,6.51
2018-11-26T05:34:46.062Z,6.52
2018-11-26T05:41:33.584Z,6.49
2018-11-26T05:44:01.982Z,6.47
2018-11-26T05:46:30.433Z,6.44
2018-11-26T05:49:08.342Z,6.44
2018-11-26T05:52:11.153Z,6.43
2018-11-26T05:54:39.615Z,6.43
2018-11-26T05:57:08.088Z,6.44
2018-11-26T05:59:36.706Z,6.42
2018-11-26T06:02:05.216Z,6.41
2018-11-26T06:04:44.227Z,6.41
2018-11-26T06:07:14.594Z,6.40
2018-11-26T06:09:43.141Z,6.42
2018-11-26T06:12:11.607Z,6.43
2018-11-26T06:14:40.101Z,6.44
2018-11-26T06:17:09.902Z,6.46
2018-11-26T06:19:38.366Z,6.50
2018-11-26T06:22:06.848Z,6.49
2018-11-26T06:24:35.227Z,6.48
2018-11-26T06:27:03.719Z,6.45
2018-11-26T06:29:32.153Z,6.45
2018-11-26T06:32:00.637Z,6.45
2018-11-26T06:34:29.203Z,6.46
2018-11-26T06:36:57.654Z,6.45
2018-11-26T06:39:26.087Z,6.46
2018-11-26T06:41:54.720Z,6.47
2018-11-26T06:44:23.195Z,6.48
2018-11-26T06:46:51.758Z,6.49
2018-11-26T06:49:20.572Z,6.48
2018-11-26T06:51:49.124Z,6.51
2018-11-26T06:54:17.933Z,6.51
2018-11-26T06:56:50.418Z,6.51
2018-11-26T06:59:21.950Z,6.50
2018-11-26T07:01:51.690Z,6.51
2018-11-26T07:04:26.868Z,6.53
2018-11-26T07:06:55.271Z,6.53
2018-11-26T07:09:25.730Z,6.52
2018-11-26T07:12:10.936Z,6.52
2018-11-26T07:14:39.393Z,6.50
2018-11-26T07:17:07.810Z,6.52
2018-11-26T07:19:53.761Z,6.52
2018-11-26T07:22:24.405Z,6.53
2018-11-26T07:24:59.621Z,6.52
2018-11-26T07:27:33.847Z,6.51
2018-11-26T07:30:02.270Z,6.51
2018-11-26T07:32:30.777Z,6.54
2018-11-26T07:34:59.363Z,6.53
2018-11-26T07:37:27.759Z,6.53
2018-11-26T07:39:56.174Z,6.55
2018-11-26T07:42:24.657Z,6.54
2018-11-26T07:44:53.333Z,6.57
2018-11-26T07:47:21.856Z,6.61
2018-11-26T07:49:50.502Z,6.63
2018-11-26T07:52:27.263Z,6.63
2018-11-26T07:54:55.650Z,6.59
2018-11-26T07:57:24.121Z,6.61
2018-11-26T07:59:59.288Z,6.61
2018-11-26T08:02:27.845Z,6.64
2018-11-26T08:04:56.234Z,6.66
2018-11-26T08:07:24.672Z,6.62
2018-11-26T08:09:53.091Z,6.63
2018-11-26T08:12:28.078Z,6.65
2018-11-26T08:14:56.586Z,6.68
2018-11-26T08:17:25.056Z,6.70
2018-11-26T08:19:53.675Z,6.73
2018-11-26T08:22:22.178Z,6.73
2018-11-26T08:24:50.657Z,6.74
2018-11-26T08:27:19.185Z,6.73
2018-11-26T08:29:47.661Z,6.75
2018-11-26T08:33:12.457Z,6.76
2018-11-26T08:35:40.879Z,6.77
2018-11-26T08:38:14.655Z,6.76
2018-11-26T08:40:48.318Z,6.78
2018-11-26T08:43:21.989Z,6.82
2018-11-26T08:46:02.347Z,6.87
2018-11-26T08:48:31.595Z,6.91
2018-11-26T08:51:01.099Z,6.92
2018-11-26T08:53:29.744Z,6.91
2018-11-26T08:55:58.346Z,6.92
2018-11-26T08:58:30.029Z,6.91
2018-11-26T09:01:05.436Z,6.91
2018-11-26T09:03:35.790Z,6.93
2018-11-26T09:06:09.375Z,6.97
2018-11-26T09:08:38.405Z,6.98
2018-11-26T09:11:08.819Z,7.00
2018-11-26T09:13:37.526Z,7.01
2018-11-26T09:16:06.235Z,7.04
2018-11-26T09:18:34.649Z,7.02
2018-11-26T09:21:03.105Z,6.99
2018-11-26T09:23:31.509Z,6.98
2018-11-26T09:26:00.072Z,6.98
2018-11-26T09:28:28.583Z,7.00
2018-11-26T09:30:57.045Z,6.99
2018-11-26T09:33:25.450Z,7.03
2018-11-26T09:35:54.168Z,7.07
2018-11-26T09:38:22.668Z,7.08
2018-11-26T09:40:51.302Z,7.09
2018-11-26T09:43:19.749Z,7.09
2018-11-26T09:45:49.242Z,7.10
2018-11-26T09:48:17.849Z,7.13
2018-11-26T09:50:46.334Z,7.14
2018-11-26T09:53:14.885Z,7.16
2018-11-26T09:55:43.401Z,7.18
2018-11-26T09:58:11.955Z,7.22
2018-11-26T10:00:40.514Z,7.23
2018-11-26T10:03:08.978Z,7.25
2018-11-26T10:05:37.492Z,7.29
2018-11-26T10:08:06.377Z,7.31
2018-11-26T10:10:34.851Z,7.31
2018-11-26T10:13:08.301Z,7.29
2018-11-26T10:15:36.713Z,7.31
2018-11-26T10:18:15.517Z,7.34
2018-11-26T10:20:43.924Z,7.35
2018-11-26T10:23:12.373Z,7.35
2018-11-26T10:25:40.781Z,7.32
2018-11-26T10:28:24.989Z,7.33
2018-11-26T10:30:53.416Z,7.34
2018-11-26T10:33:21.862Z,7.35
2018-11-26T10:35:50.464Z,7.40
2018-11-26T10:38:19.287Z,7.42
2018-11-26T10:40:47.843Z,7.44
2018-11-26T10:43:16.243Z,7.47
2018-11-26T10:45:44.693Z,7.50
2018-11-26T10:48:13.367Z,7.52
2018-11-26T10:50:41.784Z,7.48
2018-11-26T10:53:11.275Z,7.52
2018-11-26T10:55:39.923Z,7.53
2018-11-26T10:58:08.589Z,7.53
2018-11-26T11:00:45.174Z,7.54
2018-11-26T11:03:13.730Z,7.53
2018-11-26T11:05:42.209Z,7.52
2018-11-26T11:08:15.732Z,7.53
2018-11-26T11:10:44.245Z,7.52
2018-11-26T11:19:43.111Z,7.52
2018-11-26T11:22:16.560Z,7.58
2018-11-26T11:24:50.000Z,7.60
2018-11-26T11:27:20.473Z,7.64
2018-11-26T11:29:48.930Z,7.68
2018-11-26T11:32:17.394Z,7.73
2018-11-26T11:37:54.014Z,7.77
2018-11-26T11:40:29.396Z,7.77
2018-11-26T11:43:03.628Z,7.83
2018-11-26T11:45:34.461Z,7.86
2018-11-26T11:48:02.935Z,7.91
2018-11-26T11:50:31.520Z,7.90
2018-11-26T11:53:00.087Z,7.90
2018-11-26T11:55:28.642Z,7.90
2018-11-26T11:58:02.940Z,7.94
2018-11-26T12:00:35.059Z,7.99
2018-11-26T12:03:08.968Z,8.00
2018-11-26T12:05:37.602Z,8.00
2018-11-26T12:08:07.451Z,8.00
2018-11-26T12:10:36.237Z,8.02
2018-11-26T12:13:04.954Z,8.03
2018-11-26T12:15:33.412Z,8.06
2018-11-26T12:18:03.870Z,8.04
2018-11-26T12:20:55.773Z,8.07
2018-11-26T12:23:24.221Z,8.04
2018-11-26T12:25:56.933Z,8.02
2018-11-26T12:28:25.391Z,8.04
2018-11-26T12:31:00.242Z,8.07
2018-11-26T12:33:30.524Z,8.09
2018-11-26T12:35:59.106Z,8.13
2018-11-26T12:38:27.616Z,8.15
2018-11-26T12:40:56.400Z,8.16
2018-11-26T12:43:32.401Z,8.16
2018-11-26T12:49:05.650Z,8.17
2018-11-26T12:51:34.068Z,8.19
2018-11-26T12:54:02.525Z,8.21
2018-11-26T12:56:30.955Z,8.23
2018-11-26T12:59:01.260Z,8.22
2018-11-26T13:01:29.653Z,8.19
2018-11-26T13:04:12.254Z,8.19
2018-11-26T13:06:44.767Z,8.17
2018-11-26T13:09:13.486Z,8.17
2018-11-26T13:11:41.932Z,8.14
2018-11-26T13:14:10.435Z,8.13
2018-11-26T13:16:39.042Z,8.12
2018-11-26T13:19:07.603Z,8.12
2018-11-26T13:21:41.664Z,8.09
2018-11-26T13:24:44.143Z,8.10
2018-11-26T13:27:12.758Z,8.14
2018-11-26T13:29:41.414Z,8.16
2018-11-26T13:32:09.873Z,8.16
2018-11-26T13:34:38.564Z,8.18
2018-11-26T13:37:07.116Z,8.17
2018-11-26T13:39:39.626Z,8.19
2018-11-26T13:42:08.170Z,8.18
2018-11-26T13:44:41.709Z,8.20
2018-11-26T13:47:10.184Z,8.23
2018-11-26T13:49:38.731Z,8.26
2018-11-26T13:52:07.206Z,8.24
2018-11-26T13:54:35.909Z,8.23
2018-11-26T13:57:04.372Z,8.23
2018-11-26T13:59:34.150Z,8.22
2018-11-26T14:02:04.386Z,8.22
2018-11-26T14:04:33.671Z,8.22
2018-11-26T14:07:07.504Z,8.20
2018-11-26T14:09:35.937Z,8.20
2018-11-26T14:12:04.436Z,8.22
2018-11-26T14:14:37.038Z,8.22
2018-11-26T14:17:10.596Z,8.20
2018-11-26T14:19:50.794Z,8.18
2018-11-26T14:22:19.246Z,8.12
2018-11-26T14:24:47.795Z,8.11
2018-11-26T14:27:16.228Z,8.12
2018-11-26T14:29:47.861Z,8.11
2018-11-26T14:32:16.283Z,8.08
2018-11-26T14:34:44.922Z,8.09
2018-11-26T14:37:13.534Z,8.08
2018-11-26T14:39:42.302Z,8.09
2018-11-26T14:42:10.869Z,8.08
2018-11-26T14:44:50.460Z,8.09
2018-11-26T14:47:23.880Z,8.11
2018-11-26T14:49:55.645Z,8.09
2018-11-26T14:52:24.238Z,8.09
2018-11-26T14:54:52.694Z,8.07
2018-11-26T14:57:21.328Z,8.06
2018-11-26T14:59:50.056Z,8.06
2018-11-26T15:02:18.636Z,8.01
2018-11-26T15:04:47.123Z,8.00
2018-11-26T15:07:15.766Z,8.00
2018-11-26T15:09:44.525Z,8.00
2018-11-26T15:12:13.038Z,7.99
2018-11-26T15:14:41.508Z,7.97
2018-11-26T15:17:10.012Z,7.96
2018-11-26T15:19:38.475Z,7.97
2018-11-26T15:22:07.227Z,7.97
2018-11-26T15:24:35.725Z,7.96
2018-11-26T15:27:04.300Z,7.95
2018-11-26T15:29:32.812Z,7.93
2018-11-26T15:32:01.334Z,7.91
2018-11-26T15:34:29.849Z,7.89
2018-11-26T15:36:58.376Z,7.88
2018-11-26T15:39:26.793Z,7.90
2018-11-26T15:41:55.260Z,7.88
2018-11-26T15:47:16.198Z,7.85
2018-11-26T15:49:44.684Z,7.85
2018-11-26T15:52:13.119Z,7.83
2018-11-26T15:54:42.147Z,7.81
2018-11-26T15:59:50.089Z,7.78
2018-11-26T16:02:18.523Z,7.75
2018-11-26T16:04:49.972Z,7.72
2018-11-26T16:07:18.499Z,7.71
2018-11-26T16:09:47.114Z,7.69
2018-11-26T16:12:19.658Z,7.67
2018-11-26T16:14:48.157Z,7.66
2018-11-26T16:17:21.555Z,7.65
2018-11-26T16:19:50.221Z,7.66
2018-11-26T16:22:18.930Z,7.63
2018-11-26T16:24:48.559Z,7.62
2018-11-26T16:27:17.022Z,7.62
2018-11-26T16:29:48.817Z,7.59
2018-11-26T16:32:17.521Z,7.60
2018-11-26T16:34:45.984Z,7.58
2018-11-26T16:37:14.605Z,7.57
2018-11-26T16:39:43.097Z,7.56
2018-11-26T16:42:11.698Z,7.52
2018-11-26T16:44:45.151Z,7.51
2018-11-26T16:47:13.747Z,7.52
2018-11-26T16:49:45.255Z,7.49
2018-11-26T16:52:13.680Z,7.49
2018-11-26T16:54:46.332Z,7.47
2018-11-26T16:57:14.845Z,7.43
2018-11-26T16:59:43.274Z,7.45
2018-11-26T17:02:11.875Z,7.45
2018-11-26T17:04:45.935Z,7.47
2018-11-26T17:07:14.441Z,7.43
2018-11-26T17:09:43.558Z,7.40
2018-11-26T17:12:12.223Z,7.39
2018-11-26T17:14:40.961Z,7.38
2018-11-26T17:17:09.934Z,7.36
2018-11-26T17:19:38.982Z,7.36
2018-11-26T17:22:08.554Z,7.31
2018-11-26T17:25:00.263Z,7.25
2018-11-26T17:27:29.104Z,7.20
2018-11-26T17:29:57.568Z,7.19
2018-11-26T17:32:26.117Z,7.19
2018-11-26T17:34:54.557Z,7.20
2018-11-26T17:37:23.013Z,7.19
2018-11-26T17:39:51.548Z,7.19
2018-11-26T17:42:43.892Z,7.18
2018-11-26T17:45:16.990Z,7.16
2018-11-26T17:47:54.730Z,7.11
2018-11-26T17:50:27.615Z,7.06
2018-11-26T17:52:56.147Z,7.05
2018-11-26T17:55:24.819Z,7.04
2018-11-26T17:57:53.563Z,7.00
2018-11-26T18:00:27.948Z,6.98
2018-11-26T18:02:56.638Z,6.99
2018-11-26T18:05:27.793Z,7.02
2018-11-26T18:08:01.057Z,7.04
2018-11-26T18:10:29.826Z,7.03
2018-11-26T18:12:58.298Z,7.03
2018-11-26T18:15:30.845Z,6.96
2018-11-26T18:17:59.778Z,6.94
2018-11-26T18:20:28.266Z,6.94
2018-11-26T18:23:00.777Z,6.92
2018-11-26T18:25:29.315Z,6.89
2018-11-26T18:28:12.120Z,6.89
2018-11-26T18:30:46.086Z,6.90
2018-11-26T18:33:18.627Z,6.91
2018-11-26T18:35:48.365Z,6.89
2018-11-26T18:38:17.275Z,6.89
2018-11-26T18:40:47.243Z,6.90
2018-11-26T18:43:31.374Z,6.90
2018-11-26T18:46:04.035Z,6.87
2018-11-26T18:48:32.577Z,6.81
2018-11-26T18:51:01.347Z,6.79
2018-11-26T18:53:29.875Z,6.80
2018-11-26T18:55:58.605Z,6.78
2018-11-26T18:58:27.227Z,6.75
2018-11-26T19:00:58.213Z,6.75
2018-11-26T19:03:27.662Z,6.64
2018-11-26T19:05:58.077Z,6.59
2018-11-26T19:08:26.635Z,6.56
2018-11-26T19:10:59.215Z,6.52
2018-11-26T19:13:34.575Z,6.53
2018-11-26T19:16:17.434Z,6.53
2018-11-26T19:19:00.979Z,6.55
2018-11-26T19:21:29.659Z,6.52
2018-11-26T19:23:58.286Z,6.54
2018-11-26T19:26:58.792Z,6.54
2018-11-26T19:29:27.555Z,6.55
2018-11-26T19:31:57.454Z,6.49
2018-11-26T19:34:28.745Z,6.41
2018-11-26T19:36:57.395Z,6.43
2018-11-26T19:39:26.089Z,6.42
2018-11-26T19:41:54.634Z,6.40
2018-11-26T19:44:23.752Z,6.34
2018-11-26T19:46:52.671Z,6.36
2018-11-26T19:49:21.166Z,6.31
2018-11-26T19:51:49.633Z,6.30
2018-11-26T19:54:18.300Z,6.29
2018-11-26T19:56:46.913Z,6.28
2018-11-26T19:59:15.528Z,6.27
2018-11-26T20:01:44.144Z,6.30
2018-11-26T20:04:22.650Z,6.30
2018-11-26T20:06:51.126Z,6.25
2018-11-26T20:09:19.813Z,6.19
2018-11-26T20:11:48.519Z,6.19
2018-11-26T20:14:26.073Z,6.20
2018-11-26T20:16:52.978Z,6.19
2018-11-26T20:19:21.594Z,6.17
2018-11-26T20:21:50.226Z,6.11
2018-11-26T20:24:20.705Z,6.12
2018-11-26T20:26:49.338Z,6.12
2018-11-26T20:29:18.014Z,6.10
2018-11-26T20:31:47.221Z,6.14
2018-11-26T20:34:15.938Z,6.08
2018-11-26T20:36:44.443Z,6.09
2018-11-26T20:39:13.277Z,6.13
2018-11-26T20:41:42.033Z,6.14
2018-11-26T20:44:10.717Z,6.16
2018-11-26T20:46:49.026Z,6.15
2018-11-26T20:49:12.182Z,6.12
2018-11-26T20:51:40.690Z,6.06
2018-11-26T20:54:09.284Z,6.07
2018-11-26T20:56:41.803Z,6.07
2018-11-26T20:59:10.521Z,6.03
2018-11-26T21:01:39.192Z,6.03
2018-11-26T21:04:07.766Z,6.02
2018-11-26T21:06:39.318Z,6.03
2018-11-26T21:09:08.986Z,6.04
2018-11-26T21:14:21.402Z,5.97
2018-11-26T21:16:45.715Z,5.94
2018-11-26T21:19:14.183Z,5.91
2018-11-26T21:21:42.702Z,5.91
2018-11-26T21:24:11.180Z,5.92
2018-11-26T21:26:40.750Z,5.92
2018-11-26T21:29:09.518Z,5.91
2018-11-26T21:31:38.433Z,5.89
2018-11-26T21:34:07.182Z,5.83
2018-11-26T21:36:40.684Z,5.84
2018-11-26T21:39:10.779Z,5.86
2018-11-26T21:41:39.264Z,5.87
2018-11-26T21:44:07.809Z,5.87
2018-11-26T21:46:38.156Z,5.87
2018-11-26T21:49:06.743Z,5.86
2018-11-26T21:51:35.381Z,5.87
2018-11-26T21:54:04.139Z,5.85
2018-11-26T21:56:32.724Z,5.88
2018-11-26T21:59:01.318Z,5.88
2018-11-26T22:01:29.879Z,5.90
2018-11-26T22:03:58.315Z,5.90
2018-11-26T22:06:27.438Z,5.86
2018-11-26T22:12:08.747Z,5.78
2018-11-26T22:14:37.263Z,5.74
2018-11-26T22:17:06.716Z,5.73
2018-11-26T22:19:38.188Z,5.74
2018-11-26T22:22:06.866Z,5.76
2018-11-26T22:24:35.468Z,5.77
2018-11-26T22:27:04.000Z,5.78
2018-11-26T22:29:32.413Z,5.79
2018-11-26T22:32:01.098Z,5.79
2018-11-26T22:34:29.850Z,5.81
2018-11-26T22:37:03.098Z,5.78
2018-11-26T22:39:32.024Z,5.78
2018-11-26T22:44:37.447Z,5.84
2018-11-26T22:47:06.625Z,5.79
2018-11-26T22:49:35.070Z,5.76
2018-11-26T22:52:03.603Z,5.71
2018-11-26T22:54:32.113Z,5.74
2018-11-26T22:57:00.592Z,5.75
2018-11-26T22:59:29.091Z,5.78
2018-11-26T23:01:57.521Z,5.77
2018-11-26T23:04:26.226Z,5.78
2018-11-26T23:06:54.872Z,5.81
2018-11-26T23:09:23.715Z,5.83
2018-11-26T23:11:52.267Z,5.84
2018-11-26T23:14:20.873Z,5.85
2018-11-26T23:16:53.374Z,5.85
2018-11-26T23:19:21.823Z,5.82
2018-11-26T23:21:50.492Z,5.80
2018-11-26T23:24:18.782Z,5.81
2018-11-26T23:26:47.341Z,5.83
2018-11-26T23:29:16.018Z,5.80
2018-11-26T23:31:50.556Z,5.81
2018-11-26T23:34:19.122Z,5.83
2018-11-26T23:36:47.522Z,5.82
2018-11-26T23:39:16.256Z,5.84
2018-11-26T23:41:44.696Z,5.86
2018-11-26T23:44:13.169Z,5.82
2018-11-26T23:46:45.831Z,5.86
2018-11-26T23:49:14.262Z,5.89
2018-11-26T23:51:49.481Z,5.86
2018-11-26T23:54:17.917Z,5.88
2018-11-26T23:56:46.605Z,5.88
2018-11-26T23:59:15.164Z,5.91
